createdAt,value
2019-06-10T00:00:13.577Z,5.87
2019-06-10T00:02:35.337Z,7.27
2019-06-10T00:05:04.427Z,5.53
2019-06-10T00:07:31.694Z,8.50
2019-06-10T00:10:00.830Z,7.33
2019-06-10T00:12:27.688Z,4.53
2019-06-10T00:14:54.761Z,6.27
2019-06-10T00:17:22.303Z,8.40
2019-06-10T00:19:51.162Z,7.67
2019-06-10T00:22:18.463Z,5.30
2019-06-10T00:24:45.527Z,7.50
2019-06-10T00:27:12.597Z,8.10
2019-06-10T00:29:40.924Z,7.47
2019-06-10T00:32:10.290Z,6.73
2019-06-10T00:34:37.195Z,7.33
2019-06-10T00:37:07.322Z,6.13
2019-06-10T00:39:33.244Z,10.70
2019-06-10T00:42:03.199Z,9.27
2019-06-10T00:44:31.120Z,6.30
2019-06-10T00:46:58.376Z,7.33
2019-06-10T00:49:25.457Z,6.70
2019-06-10T00:51:52.528Z,6.53
2019-06-10T00:54:21.834Z,7.23
2019-06-10T00:56:51.499Z,8.00
2019-06-10T00:59:18.344Z,6.43
2019-06-10T01:01:45.517Z,8.73
2019-06-10T01:04:16.109Z,5.97
2019-06-10T01:06:42.373Z,6.57
2019-06-10T01:09:12.767Z,6.20
2019-06-10T01:11:41.046Z,6.90
2019-06-10T01:14:12.075Z,8.67
2019-06-10T01:16:37.524Z,6.50
2019-06-10T01:19:05.694Z,7.80
2019-06-10T01:21:32.959Z,9.70
2019-06-10T01:24:01.181Z,5.77
2019-06-10T01:26:30.854Z,6.03
2019-06-10T01:28:57.800Z,8.27
2019-06-10T01:31:24.868Z,5.07
2019-06-10T01:33:51.964Z,7.03
2019-06-10T01:36:21.116Z,7.03
2019-06-10T01:38:50.943Z,8.00
2019-06-10T01:41:17.517Z,8.47
2019-06-10T01:43:44.591Z,9.37
2019-06-10T01:46:13.260Z,8.90
2019-06-10T01:48:47.236Z,9.60
2019-06-10T01:51:13.458Z,6.13
2019-06-10T01:53:41.532Z,8.77
2019-06-10T01:56:10.348Z,5.03
2019-06-10T01:58:37.905Z,7.13
2019-06-10T02:01:17.405Z,7.87
2019-06-10T02:03:44.512Z,9.47
2019-06-10T02:06:16.038Z,8.63
2019-06-10T02:08:41.792Z,8.97
2019-06-10T02:11:12.348Z,5.73
2019-06-10T02:13:38.187Z,8.67
2019-06-10T02:16:05.460Z,8.57
2019-06-10T02:18:32.631Z,9.37
2019-06-10T02:21:00.902Z,8.13
2019-06-10T02:23:31.060Z,7.70
2019-06-10T02:25:57.839Z,10.70
2019-06-10T02:28:26.216Z,10.23
2019-06-10T02:30:55.726Z,7.70
2019-06-10T02:33:30.125Z,10.30
2019-06-10T02:35:53.768Z,6.03
2019-06-10T02:38:27.839Z,8.73
2019-06-10T02:40:49.265Z,8.53
2019-06-10T02:43:23.904Z,11.87
2019-06-10T02:45:47.911Z,11.47
2019-06-10T02:48:17.694Z,8.70
2019-06-10T02:51:04.009Z,9.23
2019-06-10T02:53:36.034Z,8.43
2019-06-10T02:56:03.979Z,8.83
2019-06-10T02:58:34.194Z,9.97
2019-06-10T03:00:59.576Z,9.63
2019-06-10T03:03:37.131Z,8.97
2019-06-10T03:05:55.972Z,9.23
2019-06-10T03:08:27.289Z,11.63
2019-06-10T03:10:54.818Z,10.13
2019-06-10T03:13:23.701Z,7.50
2019-06-10T03:16:13.036Z,7.73
2019-06-10T03:18:39.998Z,9.70
2019-06-10T03:21:07.057Z,9.43
2019-06-10T03:23:34.232Z,6.60
2019-06-10T03:26:03.960Z,10.23
2019-06-10T03:28:32.070Z,9.23
2019-06-10T03:30:59.522Z,9.27
2019-06-10T03:33:35.478Z,11.73
2019-06-10T03:35:56.211Z,9.87
2019-06-10T03:38:25.446Z,8.80
2019-06-10T03:40:52.562Z,8.03
2019-06-10T03:43:20.793Z,9.73
2019-06-10T03:45:48.923Z,10.40
2019-06-10T03:48:17.095Z,6.60
2019-06-10T03:50:44.568Z,9.97
2019-06-10T03:53:12.850Z,8.40
2019-06-10T03:55:42.343Z,10.53
2019-06-10T03:58:09.512Z,10.20
2019-06-10T04:00:37.188Z,9.30
2019-06-10T04:03:04.401Z,12.50
2019-06-10T04:05:33.114Z,9.93
2019-06-10T04:08:02.151Z,9.93
2019-06-10T04:10:29.659Z,9.53
2019-06-10T04:12:57.016Z,7.10
2019-06-10T04:15:27.379Z,10.47
2019-06-10T04:17:53.174Z,8.07
2019-06-10T04:20:23.065Z,8.43
2019-06-10T04:22:49.241Z,9.27
2019-06-10T04:25:17.676Z,9.73
2019-06-10T04:27:44.896Z,9.63
2019-06-10T04:30:20.082Z,8.63
2019-06-10T04:32:48.364Z,9.67
2019-06-10T04:35:15.535Z,8.03
2019-06-10T04:37:42.975Z,7.70
2019-06-10T04:40:13.348Z,8.53
2019-06-10T04:42:40.163Z,8.60
2019-06-10T04:45:07.649Z,8.77
2019-06-10T04:47:35.896Z,9.90
2019-06-10T04:50:03.876Z,9.27
2019-06-10T04:52:32.871Z,9.70
2019-06-10T04:55:02.320Z,9.03
2019-06-10T04:57:29.646Z,9.23
2019-06-10T04:59:57.484Z,8.77
2019-06-10T05:02:26.717Z,9.83
2019-06-10T05:04:53.548Z,10.03
2019-06-10T05:07:21.624Z,9.53
2019-06-10T05:09:49.604Z,8.33
2019-06-10T05:12:16.668Z,10.13
2019-06-10T05:14:55.548Z,12.80
2019-06-10T05:17:26.111Z,8.93
2019-06-10T05:19:53.086Z,10.43
2019-06-10T05:22:22.720Z,9.87
2019-06-10T05:24:49.220Z,9.93
2019-06-10T05:27:16.284Z,9.63
2019-06-10T05:29:43.343Z,10.20
2019-06-10T05:32:12.638Z,7.50
2019-06-10T05:34:39.420Z,11.00
2019-06-10T05:37:06.508Z,11.33
2019-06-10T05:39:35.122Z,9.07
2019-06-10T05:42:03.388Z,10.30
2019-06-10T05:44:33.128Z,7.80
2019-06-10T05:46:59.576Z,10.53
2019-06-10T05:49:27.797Z,9.37
2019-06-10T05:51:55.644Z,10.40
2019-06-10T05:54:23.416Z,9.10
2019-06-10T05:56:52.235Z,13.07
2019-06-10T05:59:19.931Z,8.77
2019-06-10T06:01:47.021Z,10.83
2019-06-10T06:04:14.179Z,9.53
2019-06-10T06:06:44.710Z,9.87
2019-06-10T06:09:12.765Z,11.70
2019-06-10T06:11:39.410Z,9.93
2019-06-10T06:14:06.640Z,9.97
2019-06-10T06:16:36.085Z,12.97
2019-06-10T06:19:03.487Z,11.63
2019-06-10T06:21:36.061Z,9.63
2019-06-10T06:24:03.660Z,9.83
2019-06-10T06:26:30.397Z,9.23
2019-06-10T06:28:57.613Z,13.63
2019-06-10T06:31:26.064Z,10.13
2019-06-10T06:33:54.064Z,11.40
2019-06-10T06:36:22.645Z,8.27
2019-06-10T06:38:50.126Z,8.75
2019-06-10T06:41:17.396Z,11.10
2019-06-10T06:43:45.369Z,10.97
2019-06-10T06:46:13.088Z,14.83
2019-06-10T06:48:43.432Z,13.73
2019-06-10T06:51:09.301Z,11.53
2019-06-10T06:53:47.377Z,15.33
2019-06-10T06:56:07.089Z,12.73
2019-06-10T06:58:35.652Z,9.57
2019-06-10T07:01:10.061Z,8.63
2019-06-10T07:03:34.566Z,10.93
2019-06-10T07:06:02.630Z,10.83
2019-06-10T07:08:33.300Z,9.77
2019-06-10T07:11:02.880Z,12.10
2019-06-10T07:13:35.421Z,10.67
2019-06-10T07:16:02.975Z,10.47
2019-06-10T07:18:33.746Z,10.60
2019-06-10T07:20:59.631Z,9.13
2019-06-10T07:23:26.715Z,11.63
2019-06-10T07:25:53.992Z,10.68
2019-06-10T07:28:22.998Z,10.57
2019-06-10T07:30:52.911Z,9.57
2019-06-10T07:33:19.067Z,11.30
2019-06-10T07:35:46.412Z,12.07
2019-06-10T07:38:14.895Z,12.10
2019-06-10T07:40:45.259Z,11.00
2019-06-10T07:43:12.879Z,10.20
2019-06-10T07:45:41.859Z,10.80
2019-06-10T07:48:08.875Z,11.67
2019-06-10T07:50:36.541Z,10.97
2019-06-10T07:53:04.952Z,11.47
2019-06-10T07:55:34.643Z,13.50
2019-06-10T07:58:02.518Z,10.37
2019-06-10T08:00:29.985Z,11.83
2019-06-10T08:02:57.057Z,10.30
2019-06-10T08:05:24.119Z,11.60
2019-06-10T08:07:51.184Z,10.63
2019-06-10T08:10:18.252Z,12.53
2019-06-10T08:12:47.957Z,12.47
2019-06-10T08:15:14.494Z,8.57
2019-06-10T08:17:42.946Z,14.43
2019-06-10T08:20:13.156Z,8.90
2019-06-10T08:22:49.192Z,11.07
2019-06-10T08:25:08.767Z,9.93
2019-06-10T08:27:36.601Z,8.20
2019-06-10T08:30:21.078Z,9.77
2019-06-10T08:32:40.131Z,10.00
2019-06-10T08:35:08.632Z,8.60
2019-06-10T08:38:07.871Z,9.47
2019-06-10T08:40:36.300Z,8.70
2019-06-10T08:43:04.469Z,9.47
2019-06-10T08:45:33.313Z,11.67
2019-06-10T08:48:02.718Z,9.00
2019-06-10T08:50:30.225Z,9.77
2019-06-10T08:53:12.729Z,8.73
2019-06-10T08:55:27.372Z,8.90
2019-06-10T08:57:54.445Z,10.20
2019-06-10T09:00:25.467Z,10.53
2019-06-10T09:02:53.831Z,9.47
2019-06-10T09:05:23.039Z,9.33
2019-06-10T09:07:54.197Z,8.93
2019-06-10T09:10:22.515Z,9.23
2019-06-10T09:12:52.049Z,10.63
2019-06-10T09:15:19.856Z,7.97
2019-06-10T09:17:49.606Z,11.03
2019-06-10T09:20:19.215Z,9.83
2019-06-10T09:22:53.842Z,8.43
2019-06-10T09:25:15.814Z,13.50
2019-06-10T09:27:47.679Z,9.70
2019-06-10T09:30:16.330Z,10.67
2019-06-10T09:32:48.462Z,9.13
2019-06-10T09:35:12.904Z,9.93
2019-06-10T09:37:41.297Z,11.27
2019-06-10T09:40:12.313Z,11.07
2019-06-10T09:42:44.553Z,7.83
2019-06-10T09:45:12.971Z,8.43
2019-06-10T09:47:42.576Z,7.70
2019-06-10T09:50:12.269Z,11.13
2019-06-10T09:52:45.693Z,10.23
2019-06-10T09:55:12.844Z,9.50
2019-06-10T09:57:41.298Z,10.20
2019-06-10T10:00:12.483Z,10.60
2019-06-10T10:02:44.905Z,12.50
2019-06-10T10:05:10.380Z,10.27
2019-06-10T10:07:37.887Z,10.77
2019-06-10T10:10:05.541Z,10.03
2019-06-10T10:12:32.854Z,13.67
2019-06-10T10:15:16.336Z,11.67
2019-06-10T10:17:29.012Z,9.47
2019-06-10T10:19:57.132Z,10.03
2019-06-10T10:22:25.547Z,10.57
2019-06-10T10:24:56.695Z,8.87
2019-06-10T10:27:23.381Z,9.63
2019-06-10T10:29:55.059Z,9.90
2019-06-10T10:32:19.733Z,9.57
2019-06-10T10:34:48.338Z,10.57
2019-06-10T10:37:15.764Z,10.93
2019-06-10T10:39:42.828Z,9.07
2019-06-10T10:42:12.494Z,17.80
2019-06-10T10:44:38.856Z,9.17
2019-06-10T10:47:06.037Z,9.37
2019-06-10T10:49:33.112Z,9.97
2019-06-10T10:52:02.512Z,11.37
2019-06-10T10:54:33.972Z,9.57
2019-06-10T10:56:59.140Z,11.37
2019-06-10T10:59:26.880Z,8.33
2019-06-10T11:01:53.960Z,9.60
2019-06-10T11:04:22.625Z,10.67
2019-06-10T11:06:50.219Z,8.77
2019-06-10T11:09:22.376Z,8.60
2019-06-10T11:11:53.356Z,9.17
2019-06-10T11:14:22.866Z,10.07
2019-06-10T11:16:49.484Z,10.53
2019-06-10T11:19:16.633Z,9.93
2019-06-10T11:21:43.712Z,10.33
2019-06-10T11:24:14.202Z,11.50
2019-06-10T11:26:42.980Z,10.07
2019-06-10T11:29:09.885Z,9.63
2019-06-10T11:31:36.954Z,10.23
2019-06-10T11:34:04.117Z,10.93
2019-06-10T11:36:31.281Z,10.60
2019-06-10T11:38:59.253Z,11.33
2019-06-10T11:41:26.431Z,9.33
2019-06-10T11:43:57.297Z,12.03
2019-06-10T11:46:22.492Z,10.30
2019-06-10T11:48:49.573Z,9.93
2019-06-10T11:51:16.639Z,12.53
2019-06-10T11:53:44.095Z,9.47
2019-06-10T11:56:13.128Z,9.73
2019-06-10T11:58:42.542Z,9.77
2019-06-10T12:01:12.171Z,10.60
2019-06-10T12:03:38.499Z,12.97
2019-06-10T12:06:06.016Z,6.70
2019-06-10T12:08:33.216Z,6.97
2019-06-10T12:11:02.378Z,7.40
2019-06-10T12:13:29.633Z,9.93
2019-06-10T12:18:26.068Z,7.77
2019-06-10T12:20:57.589Z,10.60
2019-06-10T12:23:22.318Z,9.03
2019-06-10T12:25:49.746Z,12.93
2019-06-10T12:28:16.993Z,13.77
2019-06-10T12:30:44.058Z,8.83
2019-06-10T12:33:19.846Z,9.33
2019-06-10T12:35:42.288Z,10.47
2019-06-10T12:38:09.184Z,8.60
2019-06-10T12:40:36.248Z,11.83
2019-06-10T12:43:06.778Z,9.57
2019-06-10T12:45:32.689Z,7.37
2019-06-10T12:48:01.715Z,6.27
2019-06-10T12:50:28.844Z,6.70
2019-06-10T12:52:57.713Z,7.20
2019-06-10T12:55:37.811Z,7.37
2019-06-10T12:57:54.415Z,6.87
2019-06-10T13:00:26.444Z,5.93
2019-06-10T13:02:53.224Z,5.60
2019-06-10T13:05:22.677Z,6.20
2019-06-10T13:07:52.336Z,6.57
2019-06-10T13:10:35.192Z,7.60
2019-06-10T13:13:06.659Z,5.03
2019-06-10T13:15:32.874Z,9.50
2019-06-10T13:18:00.324Z,6.50
2019-06-10T13:20:27.660Z,7.40
2019-06-10T13:22:54.732Z,7.13
2019-06-10T13:25:22.240Z,6.53
2019-06-10T13:27:49.428Z,6.90
2019-06-10T13:30:18.584Z,7.97
2019-06-10T13:32:46.183Z,7.23
2019-06-10T13:35:13.961Z,8.60
2019-06-10T13:37:42.837Z,7.20
2019-06-10T13:40:12.957Z,6.33
2019-06-10T13:42:42.370Z,9.43
2019-06-10T13:45:10.866Z,9.17
2019-06-10T13:47:38.236Z,10.20
2019-06-10T13:50:08.180Z,9.63
2019-06-10T13:52:36.280Z,8.73
2019-06-10T13:55:07.348Z,8.50
2019-06-10T13:57:32.601Z,8.43
2019-06-10T13:59:59.672Z,9.37
2019-06-10T14:02:26.744Z,12.00
2019-06-10T14:04:54.049Z,8.33
2019-06-10T14:07:23.308Z,9.17
2019-06-10T14:09:50.352Z,9.03
2019-06-10T14:12:17.886Z,12.60
2019-06-10T14:14:45.088Z,10.50
2019-06-10T14:17:15.922Z,9.30
2019-06-10T14:19:43.133Z,10.70
2019-06-10T14:22:11.330Z,12.90
2019-06-10T14:24:42.215Z,9.07
2019-06-10T14:27:11.502Z,3.83
2019-06-10T14:29:38.477Z,5.33
2019-06-10T14:32:07.437Z,4.33
2019-06-10T14:34:34.712Z,4.43
2019-06-10T14:37:02.076Z,6.03
2019-06-10T14:39:29.147Z,5.20
2019-06-10T14:41:59.307Z,5.40
2019-06-10T14:44:44.957Z,6.23
2019-06-10T14:47:13.980Z,5.37
2019-06-10T14:49:42.498Z,5.77
2019-06-10T14:52:12.268Z,5.50
2019-06-10T14:54:38.873Z,6.40
2019-06-10T14:57:07.047Z,8.87
2019-06-10T14:59:34.289Z,7.67
2019-06-10T15:02:02.787Z,7.83
2019-06-10T15:04:33.000Z,11.23
2019-06-10T15:06:59.743Z,9.60
2019-06-10T15:09:26.793Z,7.73
2019-06-10T15:11:54.244Z,5.00
2019-06-10T15:14:23.373Z,5.23
2019-06-10T15:16:53.171Z,5.70
2019-06-10T15:19:25.110Z,5.60
2019-06-10T15:21:48.432Z,5.53
2019-06-10T15:24:16.337Z,8.00
2019-06-10T15:26:43.500Z,5.53
2019-06-10T15:29:11.825Z,9.07
2019-06-10T15:31:39.559Z,8.37
2019-06-10T15:34:06.612Z,7.17
2019-06-10T15:36:33.680Z,5.93
2019-06-10T15:39:00.728Z,9.63
2019-06-10T15:41:28.200Z,8.07
2019-06-10T15:43:55.384Z,10.27
2019-06-10T15:46:23.456Z,10.83
2019-06-10T15:48:53.910Z,10.63
2019-06-10T15:51:21.681Z,6.00
2019-06-10T15:53:48.522Z,6.23
2019-06-10T15:56:28.692Z,6.23
2019-06-10T15:58:44.541Z,7.60
2019-06-10T16:01:14.459Z,7.50
2019-06-10T16:03:42.364Z,7.97
2019-06-10T16:06:09.653Z,8.27
2019-06-10T16:08:36.720Z,7.17
2019-06-10T16:11:03.793Z,8.63
2019-06-10T16:13:32.315Z,8.33
2019-06-10T16:15:59.816Z,8.13
2019-06-10T16:18:28.001Z,7.87
2019-06-10T16:20:55.536Z,8.43
2019-06-10T16:23:25.067Z,6.37
2019-06-10T16:25:53.519Z,6.37
2019-06-10T16:28:22.880Z,7.13
2019-06-10T16:30:49.706Z,6.70
2019-06-10T16:33:16.852Z,9.40
2019-06-10T16:35:43.932Z,8.23
2019-06-10T16:38:12.743Z,8.40
2019-06-10T16:40:39.944Z,8.73
2019-06-10T16:43:07.000Z,11.73
2019-06-10T16:45:34.169Z,10.30
2019-06-10T16:48:02.392Z,11.97
2019-06-10T16:50:29.950Z,12.70
2019-06-10T16:52:57.174Z,10.30
2019-06-10T16:55:25.771Z,9.80
2019-06-10T16:57:59.361Z,11.23
2019-06-10T17:00:25.987Z,12.23
2019-06-10T17:02:52.975Z,13.10
2019-06-10T17:05:21.272Z,20.50
2019-06-10T17:07:49.448Z,14.80
2019-06-10T17:10:17.586Z,14.27
2019-06-10T17:12:48.137Z,14.00
2019-06-10T17:15:15.809Z,12.53
2019-06-10T17:17:42.985Z,19.00
2019-06-10T17:20:13.103Z,18.87
2019-06-10T17:22:43.295Z,14.77
2019-06-10T17:25:09.932Z,13.47
2019-06-10T17:27:36.992Z,14.13
2019-06-10T17:30:05.560Z,14.93
2019-06-10T17:32:32.969Z,15.53
2019-06-10T17:35:02.320Z,16.50
2019-06-10T17:37:29.089Z,18.13
2019-06-10T17:39:56.169Z,16.93
2019-06-10T17:42:28.293Z,17.10
2019-06-10T17:44:52.920Z,15.80
2019-06-10T17:47:23.511Z,18.23
2019-06-10T17:49:49.259Z,14.83
2019-06-10T17:52:16.324Z,18.13
2019-06-10T17:54:43.392Z,15.50
2019-06-10T17:57:12.860Z,14.20
2019-06-10T17:59:40.156Z,13.20
2019-06-10T18:02:07.275Z,15.30
2019-06-10T18:04:34.372Z,15.33
2019-06-10T18:07:02.246Z,15.33
2019-06-10T18:09:32.147Z,11.53
2019-06-10T18:11:58.624Z,9.87
2019-06-10T18:14:25.941Z,9.20
2019-06-10T18:16:53.528Z,8.90
2019-06-10T18:19:22.264Z,9.70
2019-06-10T18:21:52.138Z,7.50
2019-06-10T18:24:21.418Z,8.27
2019-06-10T18:26:47.840Z,8.07
2019-06-10T18:29:14.897Z,6.10
2019-06-10T18:31:42.719Z,8.20
2019-06-10T18:34:10.130Z,5.80
2019-06-10T18:36:37.693Z,6.67
2019-06-10T18:39:06.140Z,5.80
2019-06-10T18:41:34.032Z,5.33
2019-06-10T18:44:02.327Z,6.10
2019-06-10T18:46:29.962Z,6.63
2019-06-10T18:48:58.620Z,5.43
2019-06-10T18:51:27.092Z,6.40
2019-06-10T18:53:54.379Z,4.83
2019-06-10T18:56:23.174Z,4.30
2019-06-10T18:58:52.894Z,5.13
2019-06-10T19:01:19.500Z,4.10
2019-06-10T19:03:46.709Z,5.60
2019-06-10T19:06:13.856Z,3.70
2019-06-10T19:08:43.941Z,3.27
2019-06-10T19:11:09.888Z,3.33
2019-06-10T19:13:37.571Z,2.97
2019-06-10T19:16:05.935Z,3.00
2019-06-10T19:18:33.918Z,3.30
2019-06-10T19:21:04.301Z,2.43
2019-06-10T19:23:30.299Z,4.90
2019-06-10T19:25:57.446Z,3.73
2019-06-10T19:28:24.576Z,3.17
2019-06-10T19:30:53.523Z,2.53
2019-06-10T19:33:23.227Z,3.10
2019-06-10T19:35:49.869Z,2.87
2019-06-10T19:38:16.916Z,3.67
2019-06-10T19:40:44.126Z,2.77
2019-06-10T19:43:12.367Z,2.90
2019-06-10T19:45:39.522Z,2.67
2019-06-10T19:48:06.596Z,3.53
2019-06-10T19:50:34.853Z,3.00
2019-06-10T19:53:03.414Z,4.13
2019-06-10T19:55:32.422Z,3.10
2019-06-10T19:57:59.564Z,3.10
2019-06-10T20:00:26.625Z,3.13
2019-06-10T20:02:54.053Z,3.07
2019-06-10T20:05:21.222Z,3.37
2019-06-10T20:07:50.613Z,2.93
2019-06-10T20:10:18.107Z,3.50
2019-06-10T20:12:46.647Z,3.50
2019-06-10T20:15:19.521Z,3.37
2019-06-10T20:17:47.850Z,3.67
2019-06-10T20:20:15.307Z,4.27
2019-06-10T20:22:43.993Z,3.90
2019-06-10T20:25:12.526Z,3.90
2019-06-10T20:27:39.820Z,4.10
2019-06-10T20:30:24.173Z,3.87
2019-06-10T20:32:46.479Z,4.17
2019-06-10T20:35:12.931Z,3.97
2019-06-10T20:37:40.016Z,4.47
2019-06-10T20:40:08.113Z,4.23
2019-06-10T20:42:35.276Z,4.00
2019-06-10T20:45:05.081Z,5.17
2019-06-10T20:47:33.330Z,4.87
2019-06-10T20:50:03.111Z,4.40
2019-06-10T20:52:32.573Z,4.63
2019-06-10T20:55:02.418Z,5.33
2019-06-10T20:57:28.767Z,5.27
2019-06-10T20:59:56.100Z,4.67
2019-06-10T21:02:24.655Z,5.17
2019-06-10T21:04:53.197Z,4.93
2019-06-10T21:07:23.148Z,4.37
2019-06-10T21:09:53.449Z,5.07
2019-06-10T21:12:22.218Z,4.70
2019-06-10T21:14:50.177Z,4.70
2019-06-10T21:17:17.640Z,5.27
2019-06-10T21:19:46.091Z,4.90
2019-06-10T21:22:13.688Z,4.43
2019-06-10T21:24:40.756Z,5.73
2019-06-10T21:27:07.820Z,5.90
2019-06-10T21:29:34.879Z,5.37
2019-06-10T21:32:03.499Z,8.13
2019-06-10T21:34:32.702Z,5.47
2019-06-10T21:36:59.793Z,5.77
2019-06-10T21:39:26.863Z,4.80
2019-06-10T21:41:54.639Z,5.50
2019-06-10T21:44:23.178Z,4.83
2019-06-10T21:46:50.458Z,6.70
2019-06-10T21:49:17.516Z,6.03
2019-06-10T21:51:47.310Z,5.83
2019-06-10T21:54:26.088Z,6.07
2019-06-10T21:56:55.566Z,5.90
2019-06-10T21:59:24.419Z,6.53
2019-06-10T22:01:51.592Z,5.90
2019-06-10T22:04:18.647Z,5.43
2019-06-10T22:06:45.737Z,7.00
2019-06-10T22:09:12.912Z,8.30
2019-06-10T22:11:42.265Z,6.97
2019-06-10T22:14:09.377Z,6.07
2019-06-10T22:16:36.439Z,7.73
2019-06-10T22:19:04.057Z,7.40
2019-06-10T22:21:32.623Z,8.27
2019-06-10T22:24:02.182Z,6.63
2019-06-10T22:26:29.526Z,7.10
2019-06-10T22:28:57.726Z,7.83
2019-06-10T22:31:26.377Z,8.17
2019-06-10T22:33:55.615Z,7.50
2019-06-10T22:36:23.271Z,7.90
2019-06-10T22:38:54.003Z,8.90
2019-06-10T22:41:19.769Z,8.47
2019-06-10T22:43:47.192Z,9.50
2019-06-10T22:46:14.508Z,8.07
2019-06-10T22:48:42.475Z,7.97
2019-06-10T22:51:12.154Z,10.83
2019-06-10T22:53:38.709Z,8.73
2019-06-10T22:56:05.767Z,10.30
2019-06-10T22:58:32.827Z,9.07
2019-06-10T23:01:00.307Z,9.63
2019-06-10T23:03:27.501Z,9.03
2019-06-10T23:05:54.560Z,10.37
2019-06-10T23:08:23.027Z,10.20
2019-06-10T23:10:51.192Z,11.67
2019-06-10T23:13:19.255Z,10.20
2019-06-10T23:15:46.424Z,11.03
2019-06-10T23:18:13.499Z,11.20
2019-06-10T23:20:42.735Z,11.60
2019-06-10T23:23:12.420Z,12.27
2019-06-10T23:25:38.845Z,11.77
2019-06-10T23:28:05.907Z,11.07
2019-06-10T23:30:33.119Z,11.93
2019-06-10T23:33:01.075Z,12.63
2019-06-10T23:35:28.133Z,12.87
2019-06-10T23:37:57.242Z,12.07
2019-06-10T23:40:24.289Z,12.20
2019-06-10T23:42:51.365Z,12.03
2019-06-10T23:45:18.412Z,13.40
2019-06-10T23:47:45.481Z,12.17
2019-06-10T23:50:13.002Z,12.57
2019-06-10T23:52:40.111Z,13.77
2019-06-10T23:55:08.495Z,14.27
2019-06-10T23:57:35.567Z,13.40
